sensor_id;sensor_type;location;lat;lon;timestamp;P1;durP1;ratioP1;P2;durP2;ratioP2
31306;SDS011;17935;51.120;13.132;2023-08-07T08:28:18;1.27;;;1.00;;
31306;SDS011;17935;51.120;13.132;2023-08-07T08:30:44;2.17;;;1.10;;
31306;SDS011;17935;51.120;13.132;2023-08-07T08:33:10;4.45;;;1.00;;
31306;SDS011;17935;51.120;13.132;2023-08-07T08:35:37;3.75;;;1.77;;
31306;SDS011;17935;51.120;13.132;2023-08-07T08:38:03;1.67;;;0.90;;
31306;SDS011;17935;51.120;13.132;2023-08-07T08:40:29;1.20;;;0.80;;
31306;SDS011;17935;51.120;13.132;2023-08-07T08:42:56;2.33;;;0.90;;
31306;SDS011;17935;51.120;13.132;2023-08-07T08:45:23;1.35;;;0.88;;
31306;SDS011;17935;51.120;13.132;2023-08-07T08:47:51;1.60;;;0.80;;
31306;SDS011;17935;51.120;13.132;2023-08-07T08:50:17;2.40;;;1.20;;
31306;SDS011;17935;51.120;13.132;2023-08-07T08:52:44;4.50;;;1.13;;
31306;SDS011;17935;51.120;13.132;2023-08-07T08:55:10;2.53;;;0.90;;
31306;SDS011;17935;51.120;13.132;2023-08-07T08:57:37;3.47;;;0.75;;
31306;SDS011;17935;51.120;13.132;2023-08-07T09:00:04;1.95;;;1.10;;
31306;SDS011;17935;51.120;13.132;2023-08-07T09:02:38;0.82;;;0.82;;
31306;SDS011;17935;51.120;13.132;2023-08-07T09:05:04;1.42;;;0.90;;
31306;SDS011;17935;51.120;13.132;2023-08-07T09:07:30;1.20;;;0.80;;
31306;SDS011;17935;51.120;13.132;2023-08-07T09:09:56;2.40;;;0.80;;
31306;SDS011;17935;51.120;13.132;2023-08-07T09:12:25;1.60;;;0.85;;
31306;SDS011;17935;51.120;13.132;2023-08-07T09:14:56;0.50;;;0.50;;
31306;SDS011;17935;51.120;13.132;2023-08-07T09:17:23;0.98;;;0.50;;
31306;SDS011;17935;51.120;13.132;2023-08-07T09:19:50;1.92;;;0.75;;
31306;SDS011;17935;51.120;13.132;2023-08-07T09:22:16;1.15;;;0.70;;
31306;SDS011;17935;51.120;13.132;2023-08-07T09:24:42;5.65;;;0.82;;
31306;SDS011;17935;51.120;13.132;2023-08-07T09:27:08;2.72;;;1.50;;
31306;SDS011;17935;51.120;13.132;2023-08-07T09:29:34;4.18;;;0.90;;
31306;SDS011;17935;51.120;13.132;2023-08-07T09:32:12;1.33;;;0.80;;
31306;SDS011;17935;51.120;13.132;2023-08-07T09:34:39;0.93;;;0.90;;
31306;SDS011;17935;51.120;13.132;2023-08-07T09:37:06;2.75;;;0.93;;
31306;SDS011;17935;51.120;13.132;2023-08-07T09:39:32;5.38;;;1.15;;
31306;SDS011;17935;51.120;13.132;2023-08-07T09:42:00;2.10;;;1.20;;
31306;SDS011;17935;51.120;13.132;2023-08-07T09:44:34;3.90;;;0.68;;
31306;SDS011;17935;51.120;13.132;2023-08-07T09:47:00;1.00;;;0.80;;
31306;SDS011;17935;51.120;13.132;2023-08-07T09:49:32;3.70;;;0.98;;
31306;SDS011;17935;51.120;13.132;2023-08-07T09:51:58;1.38;;;0.95;;
31306;SDS011;17935;51.120;13.132;2023-08-07T09:54:27;1.00;;;0.80;;
31306;SDS011;17935;51.120;13.132;2023-08-07T09:56:55;2.33;;;0.85;;
31306;SDS011;17935;51.120;13.132;2023-08-07T09:59:21;2.10;;;0.80;;
31306;SDS011;17935;51.120;13.132;2023-08-07T10:01:47;1.75;;;1.08;;
31306;SDS011;17935;51.120;13.132;2023-08-07T10:04:13;1.20;;;0.88;;
31306;SDS011;17935;51.120;13.132;2023-08-07T10:06:41;3.00;;;0.80;;
31306;SDS011;17935;51.120;13.132;2023-08-07T10:09:07;3.47;;;1.10;;
31306;SDS011;17935;51.120;13.132;2023-08-07T10:11:34;4.47;;;1.23;;
31306;SDS011;17935;51.120;13.132;2023-08-07T10:14:00;0.80;;;0.80;;
31306;SDS011;17935;51.120;13.132;2023-08-07T10:16:26;2.10;;;0.85;;
31306;SDS011;17935;51.120;13.132;2023-08-07T10:18:53;1.02;;;0.60;;
31306;SDS011;17935;51.120;13.132;2023-08-07T10:21:18;2.15;;;0.70;;
31306;SDS011;17935;51.120;13.132;2023-08-07T10:23:45;2.08;;;0.90;;
31306;SDS011;17935;51.120;13.132;2023-08-07T10:26:12;1.95;;;0.95;;
31306;SDS011;17935;51.120;13.132;2023-08-07T10:28:39;1.15;;;0.80;;
31306;SDS011;17935;51.120;13.132;2023-08-07T10:31:06;0.60;;;0.60;;
31306;SDS011;17935;51.120;13.132;2023-08-07T10:33:32;1.42;;;0.82;;
31306;SDS011;17935;51.120;13.132;2023-08-07T10:35:59;1.58;;;0.70;;
31306;SDS011;17935;51.120;13.132;2023-08-07T10:38:25;4.72;;;1.02;;
31306;SDS011;17935;51.120;13.132;2023-08-07T10:43:26;1.92;;;1.27;;
31306;SDS011;17935;51.120;13.132;2023-08-07T10:45:53;2.15;;;0.90;;
31306;SDS011;17935;51.120;13.132;2023-08-07T10:48:19;1.05;;;0.68;;
31306;SDS011;17935;51.120;13.132;2023-08-07T10:53:12;2.78;;;0.80;;
31306;SDS011;17935;51.120;13.132;2023-08-07T10:55:45;2.05;;;0.70;;
31306;SDS011;17935;51.120;13.132;2023-08-07T10:58:29;1.17;;;0.52;;
31306;SDS011;17935;51.120;13.132;2023-08-07T11:03:42;0.93;;;0.80;;
31306;SDS011;17935;51.120;13.132;2023-08-07T11:06:11;3.75;;;0.80;;
31306;SDS011;17935;51.120;13.132;2023-08-07T11:08:37;1.17;;;0.70;;
31306;SDS011;17935;51.120;13.132;2023-08-07T11:11:04;1.13;;;0.70;;
31306;SDS011;17935;51.120;13.132;2023-08-07T11:13:30;4.07;;;0.77;;
31306;SDS011;17935;51.120;13.132;2023-08-07T11:15:56;2.28;;;0.60;;
31306;SDS011;17935;51.120;13.132;2023-08-07T11:18:22;1.15;;;0.57;;
31306;SDS011;17935;51.120;13.132;2023-08-07T11:20:48;4.82;;;0.60;;
31306;SDS011;17935;51.120;13.132;2023-08-07T11:23:15;0.75;;;0.60;;
31306;SDS011;17935;51.120;13.132;2023-08-07T11:25:41;1.85;;;0.73;;
31306;SDS011;17935;51.120;13.132;2023-08-07T11:28:07;3.03;;;0.73;;
31306;SDS011;17935;51.120;13.132;2023-08-07T11:30:33;3.60;;;0.50;;
31306;SDS011;17935;51.120;13.132;2023-08-07T11:33:00;0.75;;;0.60;;
31306;SDS011;17935;51.120;13.132;2023-08-07T11:35:27;0.95;;;0.63;;
31306;SDS011;17935;51.120;13.132;2023-08-07T11:37:53;0.60;;;0.60;;
31306;SDS011;17935;51.120;13.132;2023-08-07T11:40:19;1.85;;;0.60;;
31306;SDS011;17935;51.120;13.132;2023-08-07T11:42:45;1.38;;;0.80;;
31306;SDS011;17935;51.120;13.132;2023-08-07T11:45:12;0.88;;;0.40;;
31306;SDS011;17935;51.120;13.132;2023-08-07T11:47:38;1.65;;;0.70;;
31306;SDS011;17935;51.120;13.132;2023-08-07T11:50:05;1.75;;;0.60;;
31306;SDS011;17935;51.120;13.132;2023-08-07T11:52:31;2.03;;;0.60;;
31306;SDS011;17935;51.120;13.132;2023-08-07T11:54:57;2.15;;;0.55;;
31306;SDS011;17935;51.120;13.132;2023-08-07T11:57:24;1.75;;;0.63;;
31306;SDS011;17935;51.120;13.132;2023-08-07T11:59:50;2.33;;;0.73;;
31306;SDS011;17935;51.120;13.132;2023-08-07T12:02:21;0.70;;;0.70;;
31306;SDS011;17935;51.120;13.132;2023-08-07T12:04:48;0.52;;;0.50;;
31306;SDS011;17935;51.120;13.132;2023-08-07T12:07:17;0.68;;;0.68;;
31306;SDS011;17935;51.120;13.132;2023-08-07T12:09:44;1.35;;;0.60;;
31306;SDS011;17935;51.120;13.132;2023-08-07T12:12:10;0.88;;;0.55;;
31306;SDS011;17935;51.120;13.132;2023-08-07T12:14:38;0.70;;;0.68;;
31306;SDS011;17935;51.120;13.132;2023-08-07T12:17:05;0.50;;;0.50;;
31306;SDS011;17935;51.120;13.132;2023-08-07T12:19:40;3.70;;;0.60;;
31306;SDS011;17935;51.120;13.132;2023-08-07T12:22:09;0.80;;;0.55;;
31306;SDS011;17935;51.120;13.132;2023-08-07T12:24:35;1.85;;;0.57;;
31306;SDS011;17935;51.120;13.132;2023-08-07T12:27:02;8.80;;;0.70;;
31306;SDS011;17935;51.120;13.132;2023-08-07T12:29:28;1.58;;;0.55;;
31306;SDS011;17935;51.120;13.132;2023-08-07T12:31:55;0.70;;;0.47;;
31306;SDS011;17935;51.120;13.132;2023-08-07T12:34:23;2.58;;;0.68;;
31306;SDS011;17935;51.120;13.132;2023-08-07T12:36:50;4.47;;;0.68;;
31306;SDS011;17935;51.120;13.132;2023-08-07T12:39:16;3.15;;;0.60;;
31306;SDS011;17935;51.120;13.132;2023-08-07T12:41:42;0.45;;;0.45;;
31306;SDS011;17935;51.120;13.132;2023-08-07T12:44:08;4.13;;;0.55;;
31306;SDS011;17935;51.120;13.132;2023-08-07T12:46:34;1.92;;;0.80;;
31306;SDS011;17935;51.120;13.132;2023-08-07T12:49:03;2.78;;;0.55;;
31306;SDS011;17935;51.120;13.132;2023-08-07T12:51:29;1.05;;;0.95;;
31306;SDS011;17935;51.120;13.132;2023-08-07T12:53:54;0.50;;;0.50;;
31306;SDS011;17935;51.120;13.132;2023-08-07T12:56:20;0.60;;;0.60;;
31306;SDS011;17935;51.120;13.132;2023-08-07T12:58:46;0.60;;;0.60;;
31306;SDS011;17935;51.120;13.132;2023-08-07T13:01:12;0.57;;;0.40;;
31306;SDS011;17935;51.120;13.132;2023-08-07T13:03:38;0.50;;;0.50;;
31306;SDS011;17935;51.120;13.132;2023-08-07T13:06:04;2.72;;;0.57;;
31306;SDS011;17935;51.120;13.132;2023-08-07T13:08:33;0.93;;;0.68;;
31306;SDS011;17935;51.120;13.132;2023-08-07T13:11:00;0.47;;;0.47;;
31306;SDS011;17935;51.120;13.132;2023-08-07T13:13:26;0.50;;;0.50;;
31306;SDS011;17935;51.120;13.132;2023-08-07T13:15:55;0.73;;;0.50;;
31306;SDS011;17935;51.120;13.132;2023-08-07T13:18:22;0.60;;;0.60;;
31306;SDS011;17935;51.120;13.132;2023-08-07T13:20:48;0.77;;;0.60;;
31306;SDS011;17935;51.120;13.132;2023-08-07T13:23:14;2.55;;;0.50;;
31306;SDS011;17935;51.120;13.132;2023-08-07T13:25:40;0.82;;;0.55;;
31306;SDS011;17935;51.120;13.132;2023-08-07T13:28:06;0.98;;;0.47;;
31306;SDS011;17935;51.120;13.132;2023-08-07T13:30:33;0.55;;;0.52;;
31306;SDS011;17935;51.120;13.132;2023-08-07T13:32:59;8.55;;;1.00;;
31306;SDS011;17935;51.120;13.132;2023-08-07T13:35:25;7.25;;;1.77;;
31306;SDS011;17935;51.120;13.132;2023-08-07T13:37:51;2.05;;;1.27;;
31306;SDS011;17935;51.120;13.132;2023-08-07T13:40:17;1.98;;;1.00;;
31306;SDS011;17935;51.120;13.132;2023-08-07T13:42:43;3.63;;;1.30;;
31306;SDS011;17935;51.120;13.132;2023-08-07T13:45:09;2.13;;;1.20;;
31306;SDS011;17935;51.120;13.132;2023-08-07T13:47:35;1.98;;;1.40;;
31306;SDS011;17935;51.120;13.132;2023-08-07T13:50:02;1.02;;;0.80;;
31306;SDS011;17935;51.120;13.132;2023-08-07T13:52:29;0.85;;;0.85;;
31306;SDS011;17935;51.120;13.132;2023-08-07T13:54:55;0.68;;;0.65;;
31306;SDS011;17935;51.120;13.132;2023-08-07T13:57:21;1.52;;;1.13;;
31306;SDS011;17935;51.120;13.132;2023-08-07T13:59:47;1.30;;;0.82;;
31306;SDS011;17935;51.120;13.132;2023-08-07T14:02:13;1.88;;;0.88;;
31306;SDS011;17935;51.120;13.132;2023-08-07T14:04:39;1.05;;;0.60;;
31306;SDS011;17935;51.120;13.132;2023-08-07T14:07:05;1.02;;;0.52;;
31306;SDS011;17935;51.120;13.132;2023-08-07T14:09:31;0.93;;;0.75;;
31306;SDS011;17935;51.120;13.132;2023-08-07T14:11:57;1.25;;;0.80;;
31306;SDS011;17935;51.120;13.132;2023-08-07T14:14:23;2.17;;;0.70;;
31306;SDS011;17935;51.120;13.132;2023-08-07T14:16:49;1.50;;;0.70;;
31306;SDS011;17935;51.120;13.132;2023-08-07T14:19:15;0.75;;;0.65;;
31306;SDS011;17935;51.120;13.132;2023-08-07T14:21:41;1.23;;;0.60;;
31306;SDS011;17935;51.120;13.132;2023-08-07T14:24:07;3.20;;;0.82;;
31306;SDS011;17935;51.120;13.132;2023-08-07T14:26:33;1.15;;;0.80;;
31306;SDS011;17935;51.120;13.132;2023-08-07T14:28:59;1.27;;;0.82;;
31306;SDS011;17935;51.120;13.132;2023-08-07T14:31:25;2.25;;;0.60;;
31306;SDS011;17935;51.120;13.132;2023-08-07T14:33:51;0.90;;;0.82;;
31306;SDS011;17935;51.120;13.132;2023-08-07T14:36:17;1.30;;;0.70;;
31306;SDS011;17935;51.120;13.132;2023-08-07T14:38:46;2.55;;;1.08;;
31306;SDS011;17935;51.120;13.132;2023-08-07T14:41:12;2.45;;;1.10;;
31306;SDS011;17935;51.120;13.132;2023-08-07T14:43:38;2.45;;;0.70;;
31306;SDS011;17935;51.120;13.132;2023-08-07T14:46:04;2.63;;;0.82;;
31306;SDS011;17935;51.120;13.132;2023-08-07T14:48:30;1.50;;;0.77;;
31306;SDS011;17935;51.120;13.132;2023-08-07T14:50:56;3.30;;;0.80;;
31306;SDS011;17935;51.120;13.132;2023-08-07T14:53:22;3.55;;;0.80;;
31306;SDS011;17935;51.120;13.132;2023-08-07T14:55:50;3.17;;;1.20;;
31306;SDS011;17935;51.120;13.132;2023-08-07T14:58:16;7.45;;;0.80;;
31306;SDS011;17935;51.120;13.132;2023-08-07T15:00:42;3.90;;;1.15;;
31306;SDS011;17935;51.120;13.132;2023-08-07T15:03:08;1.55;;;0.60;;
31306;SDS011;17935;51.120;13.132;2023-08-07T15:05:34;3.05;;;0.70;;
31306;SDS011;17935;51.120;13.132;2023-08-07T15:08:01;2.50;;;0.70;;
31306;SDS011;17935;51.120;13.132;2023-08-07T15:10:28;2.53;;;1.00;;
31306;SDS011;17935;51.120;13.132;2023-08-07T15:12:54;1.60;;;0.77;;
31306;SDS011;17935;51.120;13.132;2023-08-07T15:15:21;0.60;;;0.60;;
31306;SDS011;17935;51.120;13.132;2023-08-07T15:17:47;5.90;;;0.63;;
31306;SDS011;17935;51.120;13.132;2023-08-07T15:20:13;1.75;;;0.80;;
31306;SDS011;17935;51.120;13.132;2023-08-07T15:22:39;1.15;;;0.70;;
31306;SDS011;17935;51.120;13.132;2023-08-07T15:25:05;1.17;;;0.77;;
31306;SDS011;17935;51.120;13.132;2023-08-07T15:27:31;1.95;;;1.08;;
31306;SDS011;17935;51.120;13.132;2023-08-07T15:29:57;2.28;;;0.90;;
31306;SDS011;17935;51.120;13.132;2023-08-07T15:32:23;5.78;;;1.58;;
31306;SDS011;17935;51.120;13.132;2023-08-07T15:34:49;2.65;;;1.20;;
31306;SDS011;17935;51.120;13.132;2023-08-07T15:37:17;3.17;;;1.55;;
31306;SDS011;17935;51.120;13.132;2023-08-07T15:39:43;7.68;;;1.80;;
31306;SDS011;17935;51.120;13.132;2023-08-07T15:42:09;3.22;;;1.45;;
31306;SDS011;17935;51.120;13.132;2023-08-07T15:44:35;2.90;;;1.23;;
31306;SDS011;17935;51.120;13.132;2023-08-07T15:47:03;5.22;;;1.50;;
31306;SDS011;17935;51.120;13.132;2023-08-07T15:49:29;4.72;;;1.48;;
31306;SDS011;17935;51.120;13.132;2023-08-07T15:51:55;3.50;;;1.08;;
31306;SDS011;17935;51.120;13.132;2023-08-07T15:54:21;2.30;;;1.00;;
31306;SDS011;17935;51.120;13.132;2023-08-07T15:56:47;1.98;;;1.00;;
31306;SDS011;17935;51.120;13.132;2023-08-07T15:59:15;0.90;;;0.90;;
31306;SDS011;17935;51.120;13.132;2023-08-07T16:01:40;3.05;;;1.15;;
31306;SDS011;17935;51.120;13.132;2023-08-07T16:04:07;1.67;;;1.05;;
31306;SDS011;17935;51.120;13.132;2023-08-07T16:06:33;2.05;;;0.90;;
31306;SDS011;17935;51.120;13.132;2023-08-07T16:08:59;0.85;;;0.85;;
31306;SDS011;17935;51.120;13.132;2023-08-07T16:11:25;2.17;;;1.45;;
31306;SDS011;17935;51.120;13.132;2023-08-07T16:13:51;1.35;;;0.95;;
31306;SDS011;17935;51.120;13.132;2023-08-07T16:16:20;4.60;;;0.95;;
31306;SDS011;17935;51.120;13.132;2023-08-07T16:18:45;3.72;;;1.00;;
31306;SDS011;17935;51.120;13.132;2023-08-07T16:21:11;2.13;;;1.00;;
31306;SDS011;17935;51.120;13.132;2023-08-07T16:23:38;0.93;;;0.80;;
31306;SDS011;17935;51.120;13.132;2023-08-07T16:26:04;2.00;;;0.85;;
31306;SDS011;17935;51.120;13.132;2023-08-07T16:28:30;4.70;;;1.50;;
31306;SDS011;17935;51.120;13.132;2023-08-07T16:30:56;2.78;;;1.35;;
31306;SDS011;17935;51.120;13.132;2023-08-07T16:33:22;3.03;;;1.33;;
31306;SDS011;17935;51.120;13.132;2023-08-07T16:35:48;4.57;;;1.48;;
31306;SDS011;17935;51.120;13.132;2023-08-07T16:38:14;8.45;;;1.73;;
31306;SDS011;17935;51.120;13.132;2023-08-07T16:40:40;4.22;;;1.30;;
31306;SDS011;17935;51.120;13.132;2023-08-07T16:43:06;7.15;;;1.50;;
31306;SDS011;17935;51.120;13.132;2023-08-07T16:45:32;4.88;;;1.60;;
31306;SDS011;17935;51.120;13.132;2023-08-07T16:47:58;3.63;;;1.38;;
31306;SDS011;17935;51.120;13.132;2023-08-07T16:50:25;3.90;;;1.70;;
31306;SDS011;17935;51.120;13.132;2023-08-07T16:52:52;3.92;;;1.50;;
31306;SDS011;17935;51.120;13.132;2023-08-07T16:55:18;3.08;;;2.17;;
31306;SDS011;17935;51.120;13.132;2023-08-07T16:57:44;2.03;;;1.00;;
31306;SDS011;17935;51.120;13.132;2023-08-07T17:00:10;5.70;;;1.60;;
31306;SDS011;17935;51.120;13.132;2023-08-07T17:02:36;3.97;;;1.38;;
31306;SDS011;17935;51.120;13.132;2023-08-07T17:05:02;8.00;;;1.52;;
31306;SDS011;17935;51.120;13.132;2023-08-07T17:07:28;9.13;;;2.38;;
31306;SDS011;17935;51.120;13.132;2023-08-07T17:09:54;7.35;;;2.10;;
31306;SDS011;17935;51.120;13.132;2023-08-07T17:12:20;4.10;;;1.73;;
31306;SDS011;17935;51.120;13.132;2023-08-07T17:14:46;6.28;;;2.00;;
31306;SDS011;17935;51.120;13.132;2023-08-07T17:17:12;7.57;;;2.20;;
31306;SDS011;17935;51.120;13.132;2023-08-07T17:19:38;5.28;;;2.20;;
31306;SDS011;17935;51.120;13.132;2023-08-07T17:22:04;7.07;;;2.45;;
31306;SDS011;17935;51.120;13.132;2023-08-07T17:24:30;8.60;;;2.30;;
31306;SDS011;17935;51.120;13.132;2023-08-07T17:26:56;12.43;;;2.47;;
31306;SDS011;17935;51.120;13.132;2023-08-07T17:42:40;4.70;;;2.22;;
31306;SDS011;17935;51.120;13.132;2023-08-07T17:45:09;5.47;;;2.50;;
31306;SDS011;17935;51.120;13.132;2023-08-07T17:47:35;6.07;;;2.40;;
31306;SDS011;17935;51.120;13.132;2023-08-07T17:50:01;7.07;;;2.53;;
31306;SDS011;17935;51.120;13.132;2023-08-07T17:52:27;3.72;;;2.55;;
31306;SDS011;17935;51.120;13.132;2023-08-07T17:54:54;5.80;;;2.35;;
31306;SDS011;17935;51.120;13.132;2023-08-07T17:57:20;5.30;;;2.67;;
31306;SDS011;17935;51.120;13.132;2023-08-07T17:59:46;9.68;;;2.78;;
31306;SDS011;17935;51.120;13.132;2023-08-07T18:02:12;6.20;;;2.20;;
31306;SDS011;17935;51.120;13.132;2023-08-07T18:04:38;11.02;;;2.85;;
31306;SDS011;17935;51.120;13.132;2023-08-07T18:07:07;9.02;;;2.42;;
31306;SDS011;17935;51.120;13.132;2023-08-07T18:09:33;5.38;;;2.10;;
31306;SDS011;17935;51.120;13.132;2023-08-07T18:11:59;6.40;;;2.58;;
31306;SDS011;17935;51.120;13.132;2023-08-07T18:14:25;8.45;;;3.08;;
31306;SDS011;17935;51.120;13.132;2023-08-07T18:16:50;9.85;;;2.92;;
31306;SDS011;17935;51.120;13.132;2023-08-07T18:19:16;8.35;;;2.97;;
31306;SDS011;17935;51.120;13.132;2023-08-07T18:21:42;15.18;;;3.25;;
31306;SDS011;17935;51.120;13.132;2023-08-07T18:24:09;6.93;;;2.55;;
31306;SDS011;17935;51.120;13.132;2023-08-07T18:26:35;6.35;;;2.83;;
31306;SDS011;17935;51.120;13.132;2023-08-07T18:29:01;7.50;;;3.22;;
31306;SDS011;17935;51.120;13.132;2023-08-07T18:31:27;6.95;;;2.97;;
31306;SDS011;17935;51.120;13.132;2023-08-07T18:33:55;6.65;;;2.70;;
31306;SDS011;17935;51.120;13.132;2023-08-07T18:36:22;12.27;;;3.60;;
31306;SDS011;17935;51.120;13.132;2023-08-07T18:38:48;14.05;;;3.97;;
31306;SDS011;17935;51.120;13.132;2023-08-07T18:41:15;8.25;;;2.75;;
31306;SDS011;17935;51.120;13.132;2023-08-07T18:43:41;8.90;;;2.90;;
31306;SDS011;17935;51.120;13.132;2023-08-07T18:46:07;6.80;;;2.92;;
31306;SDS011;17935;51.120;13.132;2023-08-07T18:48:33;7.20;;;2.83;;
31306;SDS011;17935;51.120;13.132;2023-08-07T18:50:59;14.35;;;3.85;;
31306;SDS011;17935;51.120;13.132;2023-08-07T18:53:25;10.75;;;3.63;;
31306;SDS011;17935;51.120;13.132;2023-08-07T18:55:51;10.35;;;3.20;;
31306;SDS011;17935;51.120;13.132;2023-08-07T18:58:17;7.28;;;3.00;;
31306;SDS011;17935;51.120;13.132;2023-08-07T19:00:43;12.40;;;4.30;;
31306;SDS011;17935;51.120;13.132;2023-08-07T19:03:09;10.52;;;3.55;;
31306;SDS011;17935;51.120;13.132;2023-08-07T19:05:35;12.65;;;4.25;;
31306;SDS011;17935;51.120;13.132;2023-08-07T19:08:01;11.30;;;3.00;;
31306;SDS011;17935;51.120;13.132;2023-08-07T19:10:27;17.35;;;4.40;;
31306;SDS011;17935;51.120;13.132;2023-08-07T19:12:53;12.63;;;3.78;;
31306;SDS011;17935;51.120;13.132;2023-08-07T19:15:19;11.30;;;3.55;;
31306;SDS011;17935;51.120;13.132;2023-08-07T19:17:45;9.68;;;2.70;;
31306;SDS011;17935;51.120;13.132;2023-08-07T19:20:11;9.35;;;3.28;;
31306;SDS011;17935;51.120;13.132;2023-08-07T19:22:38;13.43;;;3.30;;
31306;SDS011;17935;51.120;13.132;2023-08-07T19:25:04;11.60;;;2.67;;
31306;SDS011;17935;51.120;13.132;2023-08-07T19:27:30;12.70;;;3.08;;
31306;SDS011;17935;51.120;13.132;2023-08-07T19:29:57;6.18;;;2.50;;
31306;SDS011;17935;51.120;13.132;2023-08-07T19:32:23;7.78;;;2.65;;
31306;SDS011;17935;51.120;13.132;2023-08-07T19:34:49;8.05;;;2.58;;
31306;SDS011;17935;51.120;13.132;2023-08-07T19:37:15;14.07;;;3.13;;
31306;SDS011;17935;51.120;13.132;2023-08-07T19:39:41;6.45;;;2.97;;
31306;SDS011;17935;51.120;13.132;2023-08-07T19:42:07;8.88;;;2.67;;
31306;SDS011;17935;51.120;13.132;2023-08-07T19:44:33;13.98;;;2.80;;
31306;SDS011;17935;51.120;13.132;2023-08-07T19:47:00;12.35;;;2.65;;
31306;SDS011;17935;51.120;13.132;2023-08-07T19:49:26;9.40;;;2.50;;
31306;SDS011;17935;51.120;13.132;2023-08-07T19:51:52;5.00;;;2.80;;
31306;SDS011;17935;51.120;13.132;2023-08-07T19:54:18;3.85;;;2.25;;
31306;SDS011;17935;51.120;13.132;2023-08-07T19:56:44;4.90;;;2.28;;
31306;SDS011;17935;51.120;13.132;2023-08-07T19:59:10;6.28;;;2.63;;
31306;SDS011;17935;51.120;13.132;2023-08-07T20:01:36;7.47;;;2.63;;
31306;SDS011;17935;51.120;13.132;2023-08-07T20:04:02;9.63;;;3.22;;
31306;SDS011;17935;51.120;13.132;2023-08-07T20:06:28;8.10;;;2.92;;
31306;SDS011;17935;51.120;13.132;2023-08-07T20:08:54;8.93;;;2.22;;
31306;SDS011;17935;51.120;13.132;2023-08-07T20:11:20;6.40;;;3.22;;
31306;SDS011;17935;51.120;13.132;2023-08-07T20:13:46;7.28;;;3.08;;
31306;SDS011;17935;51.120;13.132;2023-08-07T20:16:12;11.75;;;3.00;;
31306;SDS011;17935;51.120;13.132;2023-08-07T20:18:38;6.10;;;2.58;;
31306;SDS011;17935;51.120;13.132;2023-08-07T20:21:04;14.45;;;3.75;;
31306;SDS011;17935;51.120;13.132;2023-08-07T20:23:30;9.00;;;3.10;;
31306;SDS011;17935;51.120;13.132;2023-08-07T20:25:56;12.95;;;3.28;;
31306;SDS011;17935;51.120;13.132;2023-08-07T20:28:22;9.98;;;2.22;;
31306;SDS011;17935;51.120;13.132;2023-08-07T20:30:48;8.68;;;2.42;;
31306;SDS011;17935;51.120;13.132;2023-08-07T20:33:14;9.50;;;3.72;;
31306;SDS011;17935;51.120;13.132;2023-08-07T20:35:40;8.95;;;2.28;;
31306;SDS011;17935;51.120;13.132;2023-08-07T20:38:06;8.95;;;2.00;;
31306;SDS011;17935;51.120;13.132;2023-08-07T20:40:32;4.07;;;1.80;;
31306;SDS011;17935;51.120;13.132;2023-08-07T20:42:58;10.38;;;2.20;;
31306;SDS011;17935;51.120;13.132;2023-08-07T20:45:24;8.05;;;2.63;;
31306;SDS011;17935;51.120;13.132;2023-08-07T20:47:50;6.97;;;2.97;;
31306;SDS011;17935;51.120;13.132;2023-08-07T20:50:16;7.68;;;2.33;;
31306;SDS011;17935;51.120;13.132;2023-08-07T20:52:42;4.32;;;2.00;;
31306;SDS011;17935;51.120;13.132;2023-08-07T20:55:08;11.65;;;2.78;;
31306;SDS011;17935;51.120;13.132;2023-08-07T20:57:34;5.82;;;1.98;;
31306;SDS011;17935;51.120;13.132;2023-08-07T21:00:01;12.38;;;2.30;;
31306;SDS011;17935;51.120;13.132;2023-08-07T21:02:28;6.15;;;2.72;;
31306;SDS011;17935;51.120;13.132;2023-08-07T21:04:54;4.65;;;2.58;;
31306;SDS011;17935;51.120;13.132;2023-08-07T21:07:20;5.80;;;2.60;;
31306;SDS011;17935;51.120;13.132;2023-08-07T21:09:48;6.55;;;2.42;;
31306;SDS011;17935;51.120;13.132;2023-08-07T21:12:14;6.57;;;2.30;;
31306;SDS011;17935;51.120;13.132;2023-08-07T21:14:40;12.07;;;2.80;;
31306;SDS011;17935;51.120;13.132;2023-08-07T21:17:06;8.75;;;2.20;;
31306;SDS011;17935;51.120;13.132;2023-08-07T21:19:32;9.18;;;2.92;;
31306;SDS011;17935;51.120;13.132;2023-08-07T21:22:00;6.75;;;2.40;;
31306;SDS011;17935;51.120;13.132;2023-08-07T21:24:26;14.40;;;2.50;;
31306;SDS011;17935;51.120;13.132;2023-08-07T21:26:52;5.43;;;1.90;;
31306;SDS011;17935;51.120;13.132;2023-08-07T21:29:18;5.45;;;2.30;;
31306;SDS011;17935;51.120;13.132;2023-08-07T21:31:44;9.25;;;2.65;;
31306;SDS011;17935;51.120;13.132;2023-08-07T21:34:10;4.00;;;2.30;;
31306;SDS011;17935;51.120;13.132;2023-08-07T21:36:37;7.25;;;2.45;;
31306;SDS011;17935;51.120;13.132;2023-08-07T21:39:03;5.80;;;2.60;;
31306;SDS011;17935;51.120;13.132;2023-08-07T21:41:29;8.40;;;2.45;;
31306;SDS011;17935;51.120;13.132;2023-08-07T21:43:56;3.65;;;2.10;;
31306;SDS011;17935;51.120;13.132;2023-08-07T21:46:22;4.05;;;2.42;;
31306;SDS011;17935;51.120;13.132;2023-08-07T21:48:48;4.65;;;2.30;;
31306;SDS011;17935;51.120;13.132;2023-08-07T21:51:14;5.72;;;2.35;;
31306;SDS011;17935;51.120;13.132;2023-08-07T21:53:40;3.45;;;2.60;;
31306;SDS011;17935;51.120;13.132;2023-08-07T21:56:06;10.25;;;2.80;;
31306;SDS011;17935;51.120;13.132;2023-08-07T21:58:32;5.35;;;2.67;;
31306;SDS011;17935;51.120;13.132;2023-08-07T22:00:58;11.50;;;2.22;;
31306;SDS011;17935;51.120;13.132;2023-08-07T22:03:24;7.03;;;2.80;;
31306;SDS011;17935;51.120;13.132;2023-08-07T22:05:50;5.55;;;2.25;;
31306;SDS011;17935;51.120;13.132;2023-08-07T22:08:16;6.45;;;2.30;;
31306;SDS011;17935;51.120;13.132;2023-08-07T22:10:42;5.32;;;2.47;;
31306;SDS011;17935;51.120;13.132;2023-08-07T22:13:08;9.68;;;2.47;;
31306;SDS011;17935;51.120;13.132;2023-08-07T22:15:36;5.60;;;2.40;;
31306;SDS011;17935;51.120;13.132;2023-08-07T22:18:02;7.97;;;2.67;;
31306;SDS011;17935;51.120;13.132;2023-08-07T22:20:29;8.27;;;4.13;;
31306;SDS011;17935;51.120;13.132;2023-08-07T22:22:55;4.35;;;2.72;;
31306;SDS011;17935;51.120;13.132;2023-08-07T22:25:21;5.20;;;2.38;;
31306;SDS011;17935;51.120;13.132;2023-08-07T22:27:47;9.80;;;2.75;;
31306;SDS011;17935;51.120;13.132;2023-08-07T22:30:13;5.00;;;2.42;;
31306;SDS011;17935;51.120;13.132;2023-08-07T22:32:40;7.25;;;2.58;;
31306;SDS011;17935;51.120;13.132;2023-08-07T22:35:06;3.92;;;2.38;;
31306;SDS011;17935;51.120;13.132;2023-08-07T22:37:32;5.65;;;2.05;;
31306;SDS011;17935;51.120;13.132;2023-08-07T22:39:59;5.03;;;3.15;;
31306;SDS011;17935;51.120;13.132;2023-08-07T22:42:25;6.65;;;2.80;;
31306;SDS011;17935;51.120;13.132;2023-08-07T22:44:51;6.93;;;2.75;;
31306;SDS011;17935;51.120;13.132;2023-08-07T22:47:17;6.65;;;2.97;;
31306;SDS011;17935;51.120;13.132;2023-08-07T22:49:43;5.40;;;2.40;;
31306;SDS011;17935;51.120;13.132;2023-08-07T22:52:09;6.88;;;2.42;;
31306;SDS011;17935;51.120;13.132;2023-08-07T22:54:35;13.90;;;2.60;;
31306;SDS011;17935;51.120;13.132;2023-08-07T22:57:01;5.85;;;2.85;;
31306;SDS011;17935;51.120;13.132;2023-08-07T22:59:27;6.78;;;2.70;;
31306;SDS011;17935;51.120;13.132;2023-08-07T23:01:53;6.88;;;3.13;;
31306;SDS011;17935;51.120;13.132;2023-08-07T23:04:19;6.95;;;3.13;;
31306;SDS011;17935;51.120;13.132;2023-08-07T23:06:45;8.93;;;2.60;;
31306;SDS011;17935;51.120;13.132;2023-08-07T23:09:11;13.60;;;2.65;;
31306;SDS011;17935;51.120;13.132;2023-08-07T23:11:37;7.10;;;3.03;;
31306;SDS011;17935;51.120;13.132;2023-08-07T23:14:03;7.55;;;2.70;;
31306;SDS011;17935;51.120;13.132;2023-08-07T23:16:29;5.57;;;2.72;;